This is the latest recevied weather packets stored in our database for station/object VK5TRM-13. If no packets are shown the sender has not sent any weather packets the latest 10 day(s).
| Time | Temp. | Humidity | Pressure | Rain* | Wind** | Luminosity | Snow |
|---|---|---|---|---|---|---|---|
| 1778170504 | 10° C | 82% | 1029.3 hPa | 0 mm | - | - | - |
| 1778169605 | 9.44° C | 83% | 1029.4 hPa | 0 mm | - | - | - |
| 1778168705 | 9.44° C | 83% | 1029.4 hPa | 0 mm | - | - | - |
| 1778167805 | 9.44° C | 83% | 1029.5 hPa | 0 mm | - | - | - |
| 1778166905 | 9.44° C | 83% | 1029.5 hPa | 0 mm | - | - | - |
| 1778166004 | 8.89° C | 85% | 1029.6 hPa | 0 mm | - | - | - |
| 1778165104 | 8.89° C | 85% | 1029.6 hPa | 0 mm | - | - | - |
| 1778164204 | 9.44° C | 84% | 1029.6 hPa | 0 mm | - | - | - |
| 1778163305 | 9.44° C | 84% | 1029.6 hPa | 0 mm | - | - | - |
| 1778162405 | 9.44° C | 83% | 1029.6 hPa | 0 mm | - | - | - |
| 1778161505 | 9.44° C | 83% | 1029.6 hPa | 0 mm | - | - | - |
| 1778160604 | 10° C | 80% | 1029.6 hPa | 0 mm | - | - | - |
| 1778159704 | 10° C | 80% | 1029.6 hPa | 0 mm | - | - | - |
| 1778158805 | 10.56° C | 79% | 1030.1 hPa | 0 mm | - | - | - |
| 1778157905 | 10.56° C | 79% | 1030.1 hPa | 0 mm | - | - | - |
| 1778157005 | 10.56° C | 76% | 1029.9 hPa | 0 mm | - | - | - |
| 1778156104 | 10.56° C | 76% | 1029.9 hPa | 0 mm | - | - | - |
| 1778155204 | 11.11° C | 73% | 1029.8 hPa | 0 mm | - | - | - |
| 1778154304 | 11.11° C | 73% | 1029.8 hPa | 0 mm | - | - | - |
| 1778153404 | 11.67° C | 70% | 1029.9 hPa | 0 mm | - | - | - |
| 1778152505 | 11.67° C | 70% | 1029.9 hPa | 0 mm | - | - | - |
| 1778151605 | 12.22° C | 66% | 1029.9 hPa | 0 mm | - | - | - |
| 1778150705 | 12.22° C | 66% | 1029.9 hPa | 0 mm | - | - | - |
| 1778149805 | 12.22° C | 64% | 1029.8 hPa | 0 mm | - | - | - |
| 1778148904 | 12.22° C | 64% | 1029.8 hPa | 0 mm | - | - | - |
* Rain since midnight (hover to see other rain measurements)
** Current wind speed in m/s (hover to see current wind gust speed)